createdAt,value
2023-05-17T00:01:04.115Z,97100.81
2023-05-17T00:03:32.763Z,97103.16
2023-05-17T00:06:01.399Z,97108.25
2023-05-17T00:08:30.034Z,97107.75
2023-05-17T00:10:59.847Z,97111.16
2023-05-17T00:13:28.585Z,97110.06
2023-05-17T00:15:57.276Z,97118.03
2023-05-17T00:18:26.210Z,97113.38
2023-05-17T00:20:54.898Z,97106.84
2023-05-17T00:23:23.268Z,97111.41
2023-05-17T00:25:52.197Z,97118.47
2023-05-17T00:28:22.248Z,97116.84
2023-05-17T00:30:51.084Z,97115.22
2023-05-17T00:33:19.576Z,97120.97
2023-05-17T00:35:50.545Z,97123.72
2023-05-17T00:38:19.906Z,97121.09
2023-05-17T00:40:51.058Z,97119.13
2023-05-17T00:43:21.110Z,97121.97
2023-05-17T00:45:50.362Z,97127.91
2023-05-17T00:48:21.223Z,97125.69
2023-05-17T00:50:50.540Z,97126.59
2023-05-17T00:53:19.926Z,97113.41
2023-05-17T00:55:49.309Z,97127.94
2023-05-17T00:58:18.157Z,97122.81
2023-05-17T01:00:49.670Z,97123.91
2023-05-17T01:03:18.384Z,97130.97
2023-05-17T01:05:47.290Z,97131.47
2023-05-17T01:08:16.700Z,97127.63
2023-05-17T01:10:53.944Z,97129.66
2023-05-17T01:13:29.068Z,97130.06
2023-05-17T01:16:14.586Z,97134.00
2023-05-17T01:18:49.938Z,97144.78
2023-05-17T01:21:41.446Z,97134.31
2023-05-17T01:24:26.305Z,97136.47
2023-05-17T01:26:57.833Z,97137.25
2023-05-17T01:29:30.999Z,97143.00
2023-05-17T01:32:01.066Z,97142.41
2023-05-17T01:34:30.601Z,97150.66
2023-05-17T01:37:00.050Z,97146.22
2023-05-17T01:39:29.128Z,97151.47
2023-05-17T01:42:14.952Z,97149.66
2023-05-17T01:44:51.839Z,97152.91
2023-05-17T01:47:34.886Z,97154.09
2023-05-17T01:50:08.858Z,97152.97
2023-05-17T01:52:44.140Z,97153.06
2023-05-17T01:55:33.729Z,97154.09
2023-05-17T01:58:08.440Z,97160.22
2023-05-17T02:00:39.470Z,97152.59
2023-05-17T02:03:08.275Z,97161.66
2023-05-17T02:05:36.969Z,97162.16
2023-05-17T02:08:07.753Z,97166.38
2023-05-17T02:10:36.756Z,97163.44
2023-05-17T02:13:07.060Z,97169.09
2023-05-17T02:15:35.437Z,97169.38
2023-05-17T02:18:04.232Z,97168.28
2023-05-17T02:20:32.921Z,97164.97
2023-05-17T02:23:01.621Z,97170.91
2023-05-17T02:25:30.507Z,97171.19
2023-05-17T02:27:59.386Z,97174.22
2023-05-17T02:30:29.444Z,97171.16
2023-05-17T02:32:58.841Z,97171.75
2023-05-17T02:35:27.852Z,97173.31
2023-05-17T02:37:56.675Z,97159.31
2023-05-17T02:40:25.355Z,97164.25
2023-05-17T02:42:54.049Z,97165.72
2023-05-17T02:45:22.698Z,97168.56
2023-05-17T02:47:52.937Z,97176.00
2023-05-17T02:50:21.765Z,97180.63
2023-05-17T02:52:51.039Z,97175.47
2023-05-17T02:55:19.949Z,97176.94
2023-05-17T02:57:48.474Z,97181.06
2023-05-17T03:00:18.556Z,97176.44
2023-05-17T03:02:47.462Z,97183.41
2023-05-17T03:05:18.441Z,97181.34
2023-05-17T03:07:51.036Z,97182.84
2023-05-17T03:10:20.049Z,97180.72
2023-05-17T03:12:49.096Z,97192.38
2023-05-17T03:15:20.809Z,97190.03
2023-05-17T03:17:49.787Z,97189.88
2023-05-17T03:20:21.035Z,97197.06
2023-05-17T03:22:50.907Z,97196.94
2023-05-17T03:25:19.693Z,97200.22
2023-05-17T03:27:48.708Z,97206.53
2023-05-17T03:30:17.072Z,97203.09
2023-05-17T03:32:47.424Z,97200.16
2023-05-17T03:35:16.457Z,97212.19
2023-05-17T03:37:49.816Z,97218.41
2023-05-17T03:40:18.358Z,97224.91
2023-05-17T03:42:47.333Z,97223.50
2023-05-17T03:45:16.396Z,97224.31
2023-05-17T03:47:45.154Z,97227.38
2023-05-17T03:50:14.497Z,97236.16
2023-05-17T03:52:43.182Z,97241.78
2023-05-17T03:55:13.226Z,97238.84
2023-05-17T03:57:42.058Z,97241.19
2023-05-17T04:00:12.422Z,97244.72
2023-05-17T04:02:44.124Z,97242.50
2023-05-17T04:05:13.823Z,97246.78
2023-05-17T04:07:44.818Z,97252.00
2023-05-17T04:10:16.484Z,97253.91
2023-05-17T04:12:47.926Z,97262.78
2023-05-17T04:15:17.835Z,97271.22
2023-05-17T04:17:46.577Z,97277.63
2023-05-17T04:20:16.565Z,97285.06
2023-05-17T04:22:45.782Z,97281.84
2023-05-17T04:25:16.145Z,97295.94
2023-05-17T04:27:44.808Z,97294.56
2023-05-17T04:30:14.331Z,97290.44
2023-05-17T04:32:43.508Z,97291.31
2023-05-17T04:35:12.341Z,97296.63
2023-05-17T04:37:44.541Z,97298.50
2023-05-17T04:40:22.855Z,97291.94
2023-05-17T04:42:53.227Z,97297.00
2023-05-17T04:45:22.413Z,97296.56
2023-05-17T04:47:52.828Z,97307.28
2023-05-17T04:50:21.716Z,97305.09
2023-05-17T04:52:50.570Z,97303.19
2023-05-17T04:55:21.538Z,97312.72
2023-05-17T04:57:50.616Z,97307.09
2023-05-17T05:00:21.095Z,97315.59
2023-05-17T05:02:57.075Z,97312.81
2023-05-17T05:05:27.332Z,97321.84
2023-05-17T05:07:56.675Z,97324.44
2023-05-17T05:10:28.718Z,97326.94
2023-05-17T05:12:58.709Z,97330.75
2023-05-17T05:15:27.951Z,97339.53
2023-05-17T05:18:00.968Z,97343.97
2023-05-17T05:20:32.371Z,97347.03
2023-05-17T05:23:01.090Z,97349.06
2023-05-17T05:25:31.201Z,97348.94
2023-05-17T05:28:01.223Z,97348.44
2023-05-17T05:30:32.040Z,97353.44
2023-05-17T05:33:01.040Z,97348.88
2023-05-17T05:35:30.894Z,97358.91
2023-05-17T05:38:01.379Z,97352.00
2023-05-17T05:40:31.849Z,97348.59
2023-05-17T05:43:01.321Z,97349.00
2023-05-17T05:45:30.571Z,97351.03
2023-05-17T05:48:04.410Z,97354.72
2023-05-17T05:50:33.417Z,97349.88
2023-05-17T05:53:18.125Z,97350.84
2023-05-17T05:55:53.941Z,97356.34
2023-05-17T05:58:23.218Z,97357.38
2023-05-17T06:00:52.652Z,97355.44
2023-05-17T06:03:21.398Z,97365.50
2023-05-17T06:05:50.197Z,97364.56
2023-05-17T06:08:19.059Z,97372.81
2023-05-17T06:10:47.840Z,97371.09
2023-05-17T06:13:17.968Z,97374.53
2023-05-17T06:15:46.700Z,97372.47
2023-05-17T06:18:15.760Z,97375.78
2023-05-17T06:20:44.625Z,97382.09
2023-05-17T06:23:13.648Z,97384.44
2023-05-17T06:25:42.838Z,97375.97
2023-05-17T06:28:11.585Z,97376.38
2023-05-17T06:30:41.516Z,97380.22
2023-05-17T06:33:10.355Z,97387.97
2023-05-17T06:35:54.752Z,97385.78
2023-05-17T06:38:23.912Z,97393.97
2023-05-17T06:40:54.571Z,97395.59
2023-05-17T06:43:24.318Z,97404.03
2023-05-17T06:45:56.718Z,97397.41
2023-05-17T06:48:25.700Z,97398.22
2023-05-17T06:50:54.572Z,97397.03
2023-05-17T06:53:23.260Z,97401.72
2023-05-17T06:55:51.665Z,97407.56
2023-05-17T06:58:20.033Z,97415.41
2023-05-17T07:00:48.510Z,97418.50
2023-05-17T07:03:18.329Z,97418.69
2023-05-17T07:05:47.007Z,97418.28
2023-05-17T07:08:16.142Z,97426.06
2023-05-17T07:10:44.646Z,97416.84
2023-05-17T07:13:13.479Z,97421.03
2023-05-17T07:15:42.126Z,97423.91
2023-05-17T07:18:10.634Z,97431.25
2023-05-17T07:20:40.428Z,97419.72
2023-05-17T07:23:09.111Z,97427.13
2023-05-17T07:25:38.932Z,97427.81
2023-05-17T07:28:07.931Z,97424.00
2023-05-17T07:30:36.709Z,97421.72
2023-05-17T07:33:05.309Z,97430.22
2023-05-17T07:35:34.252Z,97430.22
2023-05-17T07:38:04.028Z,97433.94
2023-05-17T07:40:32.394Z,97430.44
2023-05-17T07:43:01.136Z,97432.09
2023-05-17T07:45:30.019Z,97426.03
2023-05-17T07:47:58.758Z,97432.94
2023-05-17T07:50:28.035Z,97439.44
2023-05-17T07:52:58.734Z,97430.34
2023-05-17T07:55:28.791Z,97421.81
2023-05-17T07:57:57.606Z,97423.72
2023-05-17T08:00:27.176Z,97428.13
2023-05-17T08:02:55.869Z,97430.63
2023-05-17T08:05:24.515Z,97426.72
2023-05-17T08:07:53.444Z,97427.75
2023-05-17T08:10:22.379Z,97431.75
2023-05-17T08:12:52.364Z,97432.41
2023-05-17T08:15:21.613Z,97429.28
2023-05-17T08:17:50.330Z,97437.94
2023-05-17T08:20:19.599Z,97441.97
2023-05-17T08:22:49.105Z,97441.44
2023-05-17T08:25:17.790Z,97431.91
2023-05-17T08:27:46.530Z,97438.31
2023-05-17T08:30:28.237Z,97438.38
2023-05-17T08:32:58.339Z,97432.47
2023-05-17T08:35:29.064Z,97447.06
2023-05-17T08:37:57.902Z,97442.88
2023-05-17T08:40:26.551Z,97442.84
2023-05-17T08:42:55.387Z,97437.97
2023-05-17T08:45:28.092Z,97438.69
2023-05-17T08:47:57.791Z,97437.09
2023-05-17T08:50:29.976Z,97437.19
2023-05-17T08:53:00.004Z,97441.41
2023-05-17T08:55:33.203Z,97436.78
2023-05-17T08:58:04.085Z,97436.38
2023-05-17T09:00:35.046Z,97441.63
2023-05-17T09:03:04.285Z,97438.59
2023-05-17T09:05:33.254Z,97444.13
2023-05-17T09:08:03.219Z,97443.25
2023-05-17T09:10:31.765Z,97446.06
2023-05-17T09:13:00.160Z,97442.59
2023-05-17T09:15:30.521Z,97443.13
2023-05-17T09:18:01.380Z,97450.00
2023-05-17T09:20:34.285Z,97454.13
2023-05-17T09:23:04.115Z,97458.16
2023-05-17T09:25:33.224Z,97455.31
2023-05-17T09:28:03.586Z,97459.41
2023-05-17T09:30:38.108Z,97467.47
2023-05-17T09:33:13.999Z,97473.16
2023-05-17T09:35:45.539Z,97459.31
2023-05-17T09:38:15.115Z,97464.41
2023-05-17T09:40:45.008Z,97473.78
2023-05-17T09:43:14.688Z,97475.53
2023-05-17T09:45:43.619Z,97474.09
2023-05-17T09:48:18.654Z,97472.84
2023-05-17T09:50:50.758Z,97468.59
2023-05-17T09:53:30.078Z,97471.97
2023-05-17T09:56:01.331Z,97475.63
2023-05-17T09:58:32.813Z,97474.31
2023-05-17T10:01:03.747Z,97467.19
2023-05-17T10:03:36.281Z,97463.00
2023-05-17T10:06:13.252Z,97457.84
2023-05-17T10:08:54.054Z,97473.72
2023-05-17T10:11:28.886Z,97478.28
2023-05-17T10:14:05.957Z,97470.09
2023-05-17T10:16:35.608Z,97471.47
2023-05-17T10:19:06.357Z,97459.88
2023-05-17T10:21:37.397Z,97451.03
2023-05-17T10:24:07.146Z,97453.88
2023-05-17T10:26:36.855Z,97455.28
2023-05-17T10:29:06.533Z,97448.84
2023-05-17T10:31:36.559Z,97449.38
2023-05-17T10:34:07.479Z,97442.50
2023-05-17T10:36:36.458Z,97446.94
2023-05-17T10:39:08.346Z,97450.22
2023-05-17T10:41:39.724Z,97445.88
2023-05-17T10:44:11.008Z,97438.84
2023-05-17T10:46:39.854Z,97445.44
2023-05-17T10:49:10.042Z,97441.44
2023-05-17T10:51:39.400Z,97442.47
2023-05-17T10:54:12.028Z,97434.56
2023-05-17T10:56:49.256Z,97436.53
2023-05-17T10:59:23.361Z,97434.16
2023-05-17T11:02:01.590Z,97433.69
2023-05-17T11:04:37.381Z,97435.72
2023-05-17T11:07:32.336Z,97436.66
2023-05-17T11:10:11.348Z,97429.19
2023-05-17T11:12:42.455Z,97432.38
2023-05-17T11:15:13.667Z,97416.72
2023-05-17T11:17:54.248Z,97428.16
2023-05-17T11:20:35.148Z,97429.50
2023-05-17T11:23:06.409Z,97429.31
2023-05-17T11:25:37.008Z,97426.28
2023-05-17T11:28:09.767Z,97429.56
2023-05-17T11:30:51.234Z,97418.25
2023-05-17T11:33:32.978Z,97414.72
2023-05-17T11:36:08.123Z,97416.28
2023-05-17T11:38:37.652Z,97423.44
2023-05-17T11:43:54.502Z,97419.34
2023-05-17T11:46:24.847Z,97414.75
2023-05-17T11:48:54.532Z,97414.06
2023-05-17T11:51:25.641Z,97415.75
2023-05-17T11:53:56.553Z,97414.91
2023-05-17T11:56:35.572Z,97423.28
2023-05-17T11:59:11.356Z,97415.00
2023-05-17T12:01:47.235Z,97414.19
2023-05-17T12:04:24.626Z,97421.13
2023-05-17T12:06:56.363Z,97432.59
2023-05-17T12:09:26.447Z,97419.59
2023-05-17T12:11:55.625Z,97424.84
2023-05-17T12:14:25.206Z,97415.34
2023-05-17T12:16:56.661Z,97422.66
2023-05-17T12:19:27.983Z,97421.75
2023-05-17T12:22:08.418Z,97417.81
2023-05-17T12:24:41.582Z,97423.72
2023-05-17T12:27:10.663Z,97419.66
2023-05-17T12:29:40.181Z,97428.75
2023-05-17T12:32:10.565Z,97425.75
2023-05-17T12:34:40.837Z,97419.97
2023-05-17T12:37:13.252Z,97432.09
2023-05-17T12:39:42.677Z,97432.47
2023-05-17T12:42:11.667Z,97439.69
2023-05-17T12:44:40.876Z,97439.06
2023-05-17T12:47:11.705Z,97437.97
2023-05-17T12:49:41.123Z,97441.72
2023-05-17T12:52:11.955Z,97443.94
2023-05-17T12:54:41.681Z,97450.72
2023-05-17T12:57:15.913Z,97439.84
2023-05-17T12:59:50.644Z,97441.41
2023-05-17T13:02:21.733Z,97443.81
2023-05-17T13:04:50.854Z,97435.94
2023-05-17T13:07:26.036Z,97434.41
2023-05-17T13:09:54.910Z,97435.72
2023-05-17T13:12:25.781Z,97435.94
2023-05-17T13:14:55.454Z,97439.09
2023-05-17T13:17:35.017Z,97439.97
2023-05-17T13:20:05.357Z,97447.06
2023-05-17T13:22:36.498Z,97445.41
2023-05-17T13:25:05.662Z,97447.81
2023-05-17T13:27:34.457Z,97449.47
2023-05-17T13:30:04.569Z,97456.47
2023-05-17T13:32:32.978Z,97455.38
2023-05-17T13:35:02.155Z,97447.38
2023-05-17T13:37:30.905Z,97451.38
2023-05-17T13:40:01.009Z,97453.09
2023-05-17T13:42:29.600Z,97459.81
2023-05-17T13:44:58.272Z,97461.03
2023-05-17T13:47:29.969Z,97460.09
2023-05-17T13:49:58.870Z,97460.53
2023-05-17T13:52:27.583Z,97457.72
2023-05-17T13:54:56.550Z,97467.09
2023-05-17T13:57:26.548Z,97458.69
2023-05-17T13:59:55.193Z,97455.34
2023-05-17T14:02:23.910Z,97458.34
2023-05-17T14:04:52.628Z,97453.41
2023-05-17T14:07:21.412Z,97453.28
2023-05-17T14:09:49.839Z,97456.19
2023-05-17T14:12:18.231Z,97459.53
2023-05-17T14:14:47.998Z,97461.28
2023-05-17T14:17:16.723Z,97464.06
2023-05-17T14:19:45.195Z,97470.31
2023-05-17T14:22:14.206Z,97472.09
2023-05-17T14:24:42.815Z,97467.94
2023-05-17T14:27:11.791Z,97474.38
2023-05-17T14:29:40.495Z,97478.13
2023-05-17T14:32:12.902Z,97469.38
2023-05-17T14:34:41.691Z,97472.53
2023-05-17T14:37:10.505Z,97478.16
2023-05-17T14:39:39.192Z,97479.03
2023-05-17T14:42:08.170Z,97479.31
2023-05-17T14:44:38.874Z,97482.38
2023-05-17T14:47:10.162Z,97482.81
2023-05-17T14:49:38.886Z,97482.88
2023-05-17T14:52:07.671Z,97485.22
2023-05-17T14:54:36.177Z,97480.69
2023-05-17T14:57:05.938Z,97487.34
2023-05-17T14:59:36.677Z,97482.06
2023-05-17T15:02:05.702Z,97483.06
2023-05-17T15:04:35.836Z,97484.09
2023-05-17T15:07:04.460Z,97487.75
2023-05-17T15:09:34.138Z,97495.56
2023-05-17T15:12:02.866Z,97483.00
2023-05-17T15:14:31.241Z,97489.91
2023-05-17T15:16:59.945Z,97499.72
2023-05-17T15:19:28.734Z,97493.50
2023-05-17T15:21:59.116Z,97486.41
2023-05-17T15:24:27.648Z,97495.00
2023-05-17T15:26:56.528Z,97498.09
2023-05-17T15:29:25.281Z,97501.75
2023-05-17T15:31:54.008Z,97505.44
2023-05-17T15:34:25.606Z,97504.78
2023-05-17T15:36:55.931Z,97506.69
2023-05-17T15:39:26.447Z,97504.09
2023-05-17T15:41:55.161Z,97508.09
2023-05-17T15:44:24.834Z,97503.66
2023-05-17T15:46:53.632Z,97508.97
2023-05-17T15:49:22.310Z,97503.59
2023-05-17T15:51:51.146Z,97496.69
2023-05-17T15:54:19.745Z,97495.13
2023-05-17T15:56:49.681Z,97488.59
2023-05-17T15:59:18.732Z,97490.94
2023-05-17T16:01:47.355Z,97492.41
2023-05-17T16:04:16.240Z,97497.81
2023-05-17T16:06:45.004Z,97494.59
2023-05-17T16:09:14.435Z,97499.00
2023-05-17T16:11:43.151Z,97497.56
2023-05-17T16:14:12.829Z,97500.63
2023-05-17T16:16:42.473Z,97505.84
2023-05-17T16:19:12.842Z,97509.81
2023-05-17T16:21:41.766Z,97512.97
2023-05-17T16:24:10.399Z,97513.31
2023-05-17T16:26:39.552Z,97510.88
2023-05-17T16:29:07.894Z,97523.47
2023-05-17T16:31:37.550Z,97519.41
2023-05-17T16:34:06.259Z,97524.44
2023-05-17T16:36:35.234Z,97531.38
2023-05-17T16:39:05.411Z,97535.13
2023-05-17T16:41:35.872Z,97533.31
2023-05-17T16:44:04.536Z,97530.25
2023-05-17T16:46:33.224Z,97528.50
2023-05-17T16:49:03.318Z,97526.59
2023-05-17T16:51:31.888Z,97522.38
2023-05-17T16:54:00.588Z,97526.72
2023-05-17T16:56:29.374Z,97531.72
2023-05-17T16:58:58.046Z,97528.81
2023-05-17T17:01:27.242Z,97531.53
2023-05-17T17:03:56.716Z,97530.25
2023-05-17T17:06:26.816Z,97532.03
2023-05-17T17:08:55.556Z,97530.75
2023-05-17T17:11:24.211Z,97527.84
2023-05-17T17:13:53.516Z,97528.50
2023-05-17T17:16:22.670Z,97529.47
2023-05-17T17:18:51.401Z,97532.38
2023-05-17T17:21:20.305Z,97532.69
2023-05-17T17:23:50.339Z,97531.41
2023-05-17T17:26:19.273Z,97529.16
2023-05-17T17:28:47.886Z,97530.13
2023-05-17T17:31:18.257Z,97527.88
2023-05-17T17:33:47.001Z,97539.94
2023-05-17T17:36:15.763Z,97540.88
2023-05-17T17:38:44.635Z,97535.22
2023-05-17T17:41:14.292Z,97545.88
2023-05-17T17:43:43.200Z,97543.81
2023-05-17T17:46:11.972Z,97544.44
2023-05-17T17:48:40.738Z,97542.81
2023-05-17T17:51:09.698Z,97543.44
2023-05-17T17:53:39.370Z,97549.56
2023-05-17T17:56:08.342Z,97546.03
2023-05-17T17:58:38.088Z,97553.28
2023-05-17T18:01:08.179Z,97553.09
2023-05-17T18:03:36.876Z,97548.72
2023-05-17T18:06:05.981Z,97548.56
2023-05-17T18:08:34.655Z,97552.06
2023-05-17T18:11:03.491Z,97549.91
2023-05-17T18:13:32.152Z,97551.91
2023-05-17T18:16:02.197Z,97553.31
2023-05-17T18:18:30.610Z,97551.50
2023-05-17T18:20:59.002Z,97554.63
2023-05-17T18:23:27.663Z,97556.97
2023-05-17T18:25:56.238Z,97565.28
2023-05-17T18:28:40.858Z,97560.75
2023-05-17T18:31:11.495Z,97559.88
2023-05-17T18:33:40.178Z,97554.44
2023-05-17T18:36:09.149Z,97557.13
2023-05-17T18:38:37.794Z,97553.72
2023-05-17T18:41:06.652Z,97556.78
2023-05-17T18:43:34.958Z,97553.97
2023-05-17T18:46:03.964Z,97554.28
2023-05-17T18:48:36.171Z,97553.78
2023-05-17T18:51:04.973Z,97563.09
2023-05-17T18:53:34.456Z,97556.31
2023-05-17T18:56:03.290Z,97555.19
2023-05-17T18:58:31.963Z,97547.38
2023-05-17T19:01:02.599Z,97557.09
2023-05-17T19:03:32.682Z,97561.34
2023-05-17T19:06:02.737Z,97564.91
2023-05-17T19:08:31.549Z,97567.84
2023-05-17T19:11:03.520Z,97569.56
2023-05-17T19:13:32.221Z,97568.97
2023-05-17T19:16:02.969Z,97573.81
2023-05-17T19:18:31.780Z,97564.34
2023-05-17T19:21:02.197Z,97576.47
2023-05-17T19:23:32.012Z,97574.88
2023-05-17T19:26:00.901Z,97585.06
2023-05-17T19:28:29.725Z,97581.03
2023-05-17T19:30:58.442Z,97575.44
2023-05-17T19:33:26.901Z,97583.63
2023-05-17T19:35:55.641Z,97582.03
2023-05-17T19:38:26.071Z,97578.72
2023-05-17T19:40:54.762Z,97586.31
2023-05-17T19:43:23.679Z,97581.69
2023-05-17T19:45:52.583Z,97579.59
2023-05-17T19:48:21.255Z,97585.34
2023-05-17T19:50:50.185Z,97576.88
2023-05-17T19:53:19.426Z,97579.59
2023-05-17T19:55:49.497Z,97577.06
2023-05-17T19:58:18.260Z,97585.44
2023-05-17T20:00:46.902Z,97580.66
2023-05-17T20:03:15.624Z,97580.47
2023-05-17T20:05:44.546Z,97586.34
2023-05-17T20:08:13.296Z,97583.97
2023-05-17T20:10:42.147Z,97580.81
2023-05-17T20:13:12.246Z,97580.13
2023-05-17T20:15:41.045Z,97585.72
2023-05-17T20:18:10.001Z,97581.00
2023-05-17T20:20:39.072Z,97582.03
2023-05-17T20:23:08.812Z,97583.75
2023-05-17T20:25:38.028Z,97581.03
2023-05-17T20:28:06.778Z,97575.56
2023-05-17T20:30:36.564Z,97583.09
2023-05-17T20:33:05.561Z,97583.59
2023-05-17T20:35:34.706Z,97587.06
2023-05-17T20:38:03.319Z,97587.41
2023-05-17T20:40:32.312Z,97594.13
2023-05-17T20:43:01.244Z,97592.00
2023-05-17T20:45:30.025Z,97588.75
2023-05-17T20:47:59.757Z,97590.75
2023-05-17T20:50:29.686Z,97587.53
2023-05-17T20:52:58.373Z,97590.09
2023-05-17T20:55:27.190Z,97591.31
2023-05-17T20:57:55.922Z,97588.94
2023-05-17T21:00:24.787Z,97591.22
2023-05-17T21:02:53.164Z,97587.78
2023-05-17T21:05:23.269Z,97591.41
2023-05-17T21:07:51.969Z,97580.88
2023-05-17T21:10:20.662Z,97587.97
2023-05-17T21:12:49.351Z,97585.88
2023-05-17T21:15:18.006Z,97579.69
2023-05-17T21:17:47.263Z,97584.19
2023-05-17T21:20:16.018Z,97588.34
2023-05-17T21:22:46.421Z,97588.91
2023-05-17T21:25:14.978Z,97580.50
2023-05-17T21:27:43.897Z,97590.00
2023-05-17T21:30:13.114Z,97589.63
2023-05-17T21:32:42.295Z,97588.75
2023-05-17T21:35:11.168Z,97596.22
2023-05-17T21:37:40.191Z,97590.50
2023-05-17T21:40:11.119Z,97586.63
2023-05-17T21:42:40.056Z,97588.94
2023-05-17T21:45:09.822Z,97597.28
2023-05-17T21:47:38.512Z,97591.53
2023-05-17T21:50:08.074Z,97582.25
2023-05-17T21:52:36.730Z,97587.13
2023-05-17T21:55:06.344Z,97589.34
2023-05-17T21:57:36.836Z,97586.09
2023-05-17T22:00:08.437Z,97585.75
2023-05-17T22:02:37.565Z,97595.00
2023-05-17T22:05:07.095Z,97588.25
2023-05-17T22:07:36.587Z,97587.06
2023-05-17T22:10:09.347Z,97586.09
2023-05-17T22:12:40.913Z,97587.69
2023-05-17T22:15:10.985Z,97590.97
2023-05-17T22:17:51.688Z,97594.28
2023-05-17T22:20:23.784Z,97587.47
2023-05-17T22:22:53.039Z,97588.31
2023-05-17T22:25:21.879Z,97592.47
2023-05-17T22:27:51.930Z,97594.44
2023-05-17T22:30:20.626Z,97582.28
2023-05-17T22:32:49.477Z,97585.31
2023-05-17T22:35:18.096Z,97583.91
2023-05-17T22:37:46.720Z,97582.31
2023-05-17T22:40:15.561Z,97589.47
2023-05-17T22:42:44.999Z,97579.66
2023-05-17T22:45:14.836Z,97592.88
2023-05-17T22:47:43.769Z,97591.06
2023-05-17T22:50:14.105Z,97588.09
2023-05-17T22:52:42.840Z,97587.56
2023-05-17T22:55:12.040Z,97584.56
2023-05-17T22:57:40.968Z,97590.00
2023-05-17T23:00:11.528Z,97588.41
2023-05-17T23:02:41.362Z,97584.66
2023-05-17T23:05:11.225Z,97581.38
2023-05-17T23:07:41.445Z,97572.69
2023-05-17T23:10:11.570Z,97577.25
2023-05-17T23:12:40.651Z,97573.44
2023-05-17T23:15:10.614Z,97577.53
2023-05-17T23:17:41.274Z,97581.31
2023-05-17T23:20:12.409Z,97571.00
2023-05-17T23:22:41.298Z,97570.78
2023-05-17T23:25:11.035Z,97572.38
2023-05-17T23:27:39.762Z,97568.81
2023-05-17T23:30:09.786Z,97571.00
2023-05-17T23:32:40.446Z,97571.88
2023-05-17T23:35:10.379Z,97560.47
2023-05-17T23:37:39.321Z,97560.78
2023-05-17T23:40:11.420Z,97556.53
2023-05-17T23:42:41.170Z,97561.50
2023-05-17T23:45:10.800Z,97558.75
2023-05-17T23:47:41.428Z,97555.00
2023-05-17T23:50:11.285Z,97554.47
2023-05-17T23:52:41.105Z,97554.72
2023-05-17T23:55:10.587Z,97555.06
2023-05-17T23:57:40.037Z,97548.88
